createdAt,value
2019-04-14T00:01:54.192Z,27.10
2019-04-14T00:04:24.797Z,25.17
2019-04-14T00:06:53.338Z,26.63
2019-04-14T00:09:22.710Z,26.00
2019-04-14T00:11:52.562Z,26.03
2019-04-14T00:14:21.160Z,28.27
2019-04-14T00:16:50.916Z,41.50
2019-04-14T00:19:19.595Z,25.73
2019-04-14T00:21:48.131Z,24.30
2019-04-14T00:24:16.576Z,26.03
2019-04-14T00:26:45.045Z,27.20
2019-04-14T00:29:13.515Z,23.47
2019-04-14T00:31:41.978Z,26.83
2019-04-14T00:34:28.838Z,25.00
2019-04-14T00:36:59.014Z,24.33
2019-04-14T00:39:29.449Z,24.57
2019-04-14T00:42:16.881Z,25.20
2019-04-14T00:44:47.394Z,26.07
2019-04-14T00:47:20.273Z,28.37
2019-04-14T00:49:48.786Z,25.97
2019-04-14T00:52:17.353Z,30.13
2019-04-14T00:54:45.860Z,27.03
2019-04-14T00:57:14.343Z,26.37
2019-04-14T00:59:43.862Z,26.47
2019-04-14T01:02:12.539Z,28.50
2019-04-14T01:04:41.079Z,26.80
2019-04-14T01:07:10.733Z,27.30
2019-04-14T01:09:39.306Z,27.87
2019-04-14T01:12:08.242Z,27.90
2019-04-14T01:14:36.754Z,25.33
2019-04-14T01:17:05.310Z,23.97
2019-04-14T01:19:33.754Z,26.60
2019-04-14T01:22:03.181Z,27.10
2019-04-14T01:24:31.757Z,25.60
2019-04-14T01:27:00.217Z,25.20
2019-04-14T01:29:29.682Z,24.90
2019-04-14T01:31:58.311Z,25.60
2019-04-14T01:34:28.058Z,25.70
2019-04-14T01:36:56.964Z,24.70
2019-04-14T01:39:26.531Z,23.07
2019-04-14T01:41:56.321Z,22.67
2019-04-14T01:44:26.297Z,25.30
2019-04-14T01:46:54.929Z,50.70
2019-04-14T01:49:24.620Z,25.20
2019-04-14T01:52:03.683Z,28.67
2019-04-14T01:54:36.696Z,24.70
2019-04-14T01:57:13.218Z,26.53
2019-04-14T01:59:42.001Z,43.07
2019-04-14T02:02:12.093Z,26.90
2019-04-14T02:04:42.019Z,27.87
2019-04-14T02:07:10.589Z,24.20
2019-04-14T02:09:40.120Z,25.33
2019-04-14T02:12:08.651Z,32.20
2019-04-14T02:14:37.189Z,25.80
2019-04-14T02:17:07.382Z,25.57
2019-04-14T02:19:37.050Z,27.60
2019-04-14T02:22:05.674Z,24.60
2019-04-14T02:24:35.200Z,27.77
2019-04-14T02:27:03.767Z,26.60
2019-04-14T02:29:32.229Z,25.03
2019-04-14T02:32:35.375Z,25.87
2019-04-14T02:35:06.228Z,25.83
2019-04-14T02:37:19.650Z,24.37
2019-04-14T02:45:00.256Z,24.30
2019-04-14T02:47:45.081Z,21.83
2019-04-14T02:50:02.597Z,22.53
2019-04-14T02:52:30.059Z,23.20
2019-04-14T02:54:59.916Z,21.13
2019-04-14T02:57:30.964Z,23.20
2019-04-14T02:59:59.488Z,22.47
2019-04-14T03:02:35.474Z,20.00
2019-04-14T03:05:00.071Z,20.10
2019-04-14T03:07:28.394Z,21.53
2019-04-14T03:10:01.225Z,22.60
2019-04-14T03:15:03.450Z,22.67
2019-04-14T03:17:58.560Z,23.27
2019-04-14T03:20:17.518Z,24.63
2019-04-14T03:22:45.930Z,20.13
2019-04-14T03:25:15.278Z,24.47
2019-04-14T03:27:58.421Z,22.33
2019-04-14T03:31:03.886Z,20.77
2019-04-14T03:38:14.633Z,21.43
2019-04-14T03:43:13.610Z,32.37
2019-04-14T03:45:43.317Z,25.13
2019-04-14T03:50:39.315Z,22.37
2019-04-14T03:55:54.317Z,26.27
2019-04-14T03:58:18.248Z,22.80
2019-04-14T04:00:46.826Z,24.23
2019-04-14T04:03:15.307Z,22.90
2019-04-14T04:05:43.762Z,25.67
2019-04-14T04:08:12.215Z,24.90
2019-04-14T04:10:42.331Z,24.83
2019-04-14T04:13:10.791Z,27.37
2019-04-14T04:15:39.315Z,25.63
2019-04-14T04:18:13.406Z,26.60
2019-04-14T04:20:52.495Z,28.03
2019-04-14T04:23:40.293Z,24.83
2019-04-14T04:26:14.484Z,27.93
2019-04-14T04:28:51.787Z,28.47
2019-04-14T04:31:38.024Z,25.17
2019-04-14T04:34:08.128Z,25.73
2019-04-14T04:36:38.303Z,23.77
2019-04-14T04:39:08.668Z,27.27
2019-04-14T04:41:37.150Z,27.60
2019-04-14T04:44:05.602Z,26.90
2019-04-14T04:46:37.222Z,27.70
2019-04-14T04:49:13.976Z,25.10
2019-04-14T04:51:36.370Z,29.83
2019-04-14T04:54:05.976Z,25.87
2019-04-14T04:56:34.567Z,25.80
2019-04-14T04:59:03.308Z,27.27
2019-04-14T05:01:31.867Z,24.87
2019-04-14T05:04:00.392Z,25.57
2019-04-14T05:06:57.073Z,23.00
2019-04-14T05:09:38.549Z,23.67
2019-04-14T05:12:26.178Z,23.40
2019-04-14T05:15:03.338Z,28.60
2019-04-14T05:17:34.235Z,24.77
2019-04-14T05:20:03.283Z,24.83
2019-04-14T05:22:31.818Z,24.90
2019-04-14T05:25:01.357Z,25.50
2019-04-14T05:27:29.930Z,27.23
2019-04-14T05:29:58.391Z,25.00
2019-04-14T05:32:26.862Z,28.27
2019-04-14T05:34:56.470Z,24.60
2019-04-14T05:37:25.093Z,27.33
2019-04-14T05:39:54.767Z,27.53
2019-04-14T05:42:25.649Z,23.07
2019-04-14T05:44:53.675Z,23.67
2019-04-14T05:47:22.174Z,23.03
2019-04-14T05:49:54.287Z,26.20
2019-04-14T05:52:20.809Z,26.33
2019-04-14T05:54:49.350Z,27.70
2019-04-14T05:57:17.859Z,27.00
2019-04-14T05:59:46.314Z,24.80
2019-04-14T06:02:15.780Z,26.20
2019-04-14T06:04:44.430Z,22.87
2019-04-14T06:07:12.984Z,22.47
2019-04-14T06:09:41.479Z,19.83
2019-04-14T06:12:09.928Z,19.87
2019-04-14T06:14:38.415Z,18.97
2019-04-14T06:17:06.858Z,20.10
2019-04-14T06:19:37.964Z,19.00
2019-04-14T06:22:05.758Z,17.37
2019-04-14T06:24:34.326Z,16.33
2019-04-14T06:27:03.104Z,16.07
2019-04-14T06:29:32.063Z,16.77
2019-04-14T06:32:02.248Z,17.40
2019-04-14T06:34:44.686Z,16.23
2019-04-14T06:37:14.811Z,15.83
2019-04-14T06:39:50.566Z,15.27
2019-04-14T06:42:19.418Z,14.57
2019-04-14T06:44:47.962Z,15.77
2019-04-14T06:47:16.471Z,16.87
2019-04-14T06:49:49.182Z,15.67
2019-04-14T06:52:15.227Z,15.17
2019-04-14T06:54:43.734Z,14.67
2019-04-14T06:57:12.209Z,14.77
2019-04-14T06:59:40.705Z,15.70
2019-04-14T07:02:09.394Z,14.17
2019-04-14T07:04:37.892Z,14.00
2019-04-14T07:07:06.424Z,14.07
2019-04-14T07:09:35.783Z,14.70
2019-04-14T07:12:04.364Z,13.10
2019-04-14T07:14:33.035Z,12.67
2019-04-14T07:17:01.524Z,14.30
2019-04-14T07:19:30.050Z,13.57
2019-04-14T07:21:58.595Z,14.60
2019-04-14T07:24:27.228Z,12.43
2019-04-14T07:26:55.725Z,12.30
2019-04-14T07:29:25.974Z,12.60
2019-04-14T07:31:59.108Z,14.80
2019-04-14T07:34:36.378Z,11.90
2019-04-14T07:37:06.746Z,13.07
2019-04-14T07:39:36.928Z,12.57
2019-04-14T07:42:16.389Z,13.47
2019-04-14T07:44:46.559Z,12.03
2019-04-14T07:47:16.661Z,11.90
2019-04-14T07:49:55.793Z,11.60
2019-04-14T07:52:40.750Z,13.30
2019-04-14T07:55:20.346Z,11.47
2019-04-14T07:57:53.200Z,12.43
2019-04-14T08:00:25.939Z,12.43
2019-04-14T08:02:56.054Z,11.30
2019-04-14T08:05:29.140Z,11.03
2019-04-14T08:07:57.886Z,12.10
2019-04-14T08:10:26.477Z,11.70
2019-04-14T08:12:54.942Z,9.17
2019-04-14T08:15:23.528Z,10.00
2019-04-14T08:17:52.091Z,10.87
2019-04-14T08:20:27.246Z,11.97
2019-04-14T08:22:51.615Z,10.17
2019-04-14T08:25:20.089Z,10.67
2019-04-14T08:27:48.681Z,10.73
2019-04-14T08:30:17.237Z,10.30
2019-04-14T08:32:46.589Z,11.17
2019-04-14T08:35:15.204Z,10.27
2019-04-14T08:37:43.738Z,9.97
2019-04-14T08:40:12.349Z,10.63
2019-04-14T08:42:51.108Z,10.17
2019-04-14T08:45:37.418Z,10.90
2019-04-14T08:48:16.419Z,10.00
2019-04-14T08:50:49.223Z,9.10
2019-04-14T08:53:24.874Z,10.03
2019-04-14T08:56:07.000Z,10.43
2019-04-14T08:58:37.079Z,9.30
2019-04-14T09:01:07.175Z,9.43
2019-04-14T09:03:46.109Z,9.23
2019-04-14T09:06:16.178Z,9.00
2019-04-14T09:09:01.272Z,9.07
2019-04-14T09:11:34.049Z,10.33
2019-04-14T09:14:02.893Z,10.30
2019-04-14T09:16:31.459Z,9.90
2019-04-14T09:19:07.420Z,8.87
2019-04-14T09:21:30.164Z,9.83
2019-04-14T09:23:58.706Z,10.33
2019-04-14T09:26:27.218Z,10.13
2019-04-14T09:28:55.902Z,9.20
2019-04-14T09:31:24.348Z,8.90
2019-04-14T09:33:52.800Z,10.37
2019-04-14T09:36:21.302Z,10.13
2019-04-14T09:38:49.758Z,9.27
2019-04-14T09:41:18.274Z,10.03
2019-04-14T09:43:46.792Z,9.13
2019-04-14T09:46:15.230Z,9.97
2019-04-14T09:48:43.735Z,10.10
2019-04-14T09:51:12.249Z,10.00
2019-04-14T09:53:40.779Z,11.30
2019-04-14T09:56:09.287Z,10.80
2019-04-14T09:58:37.838Z,10.23
2019-04-14T10:01:08.963Z,11.27
2019-04-14T10:03:36.487Z,11.17
2019-04-14T10:06:05.003Z,11.00
2019-04-14T10:08:33.532Z,10.47
2019-04-14T10:11:02.086Z,12.07
2019-04-14T10:13:30.635Z,12.00
2019-04-14T10:15:59.123Z,11.00
2019-04-14T10:18:27.627Z,12.07
2019-04-14T10:20:56.086Z,12.27
2019-04-14T10:23:24.627Z,12.47
2019-04-14T10:25:53.171Z,12.37
2019-04-14T10:28:21.687Z,12.07
2019-04-14T10:30:50.143Z,12.63
2019-04-14T10:33:18.593Z,14.20
2019-04-14T10:35:47.056Z,11.53
2019-04-14T10:38:15.506Z,12.63
2019-04-14T10:40:43.974Z,12.50
2019-04-14T10:43:12.427Z,13.17
2019-04-14T10:45:40.869Z,13.07
2019-04-14T10:48:09.356Z,13.13
2019-04-14T10:50:38.126Z,13.00
2019-04-14T10:53:06.597Z,13.00
2019-04-14T10:55:35.034Z,13.20
2019-04-14T10:58:03.542Z,12.87
2019-04-14T11:00:31.993Z,12.00
2019-04-14T11:03:00.478Z,12.60
2019-04-14T11:05:30.635Z,12.10
2019-04-14T11:07:59.091Z,13.30
2019-04-14T11:10:27.554Z,12.17
2019-04-14T11:12:56.002Z,11.30
2019-04-14T11:15:24.458Z,9.60
2019-04-14T11:17:52.907Z,12.10
2019-04-14T11:20:21.356Z,12.73
2019-04-14T11:23:02.469Z,11.77
2019-04-14T11:25:20.008Z,12.87
2019-04-14T11:27:48.476Z,13.00
2019-04-14T11:30:21.174Z,12.83
2019-04-14T11:32:54.250Z,13.73
2019-04-14T11:35:27.352Z,12.50
2019-04-14T11:38:06.430Z,12.97
2019-04-14T11:40:39.728Z,11.63
2019-04-14T11:43:08.223Z,12.57
2019-04-14T11:45:36.696Z,12.43
2019-04-14T11:48:05.202Z,11.80
2019-04-14T11:50:33.686Z,13.23
2019-04-14T11:53:02.208Z,13.60
2019-04-14T11:55:30.725Z,13.20
2019-04-14T11:57:59.175Z,11.07
2019-04-14T12:00:35.422Z,12.53
2019-04-14T12:03:05.511Z,13.07
2019-04-14T12:05:51.643Z,13.93
2019-04-14T12:08:21.823Z,11.60
2019-04-14T12:10:50.359Z,12.10
2019-04-14T12:13:18.855Z,13.57
2019-04-14T12:15:47.337Z,12.77
2019-04-14T12:18:15.785Z,12.17
2019-04-14T12:20:44.287Z,12.87
2019-04-14T12:23:15.848Z,12.63
2019-04-14T12:25:43.043Z,12.97
2019-04-14T12:28:11.521Z,14.23
2019-04-14T12:30:40.026Z,12.47
2019-04-14T12:33:08.557Z,12.83
2019-04-14T12:35:37.898Z,14.20
2019-04-14T12:38:06.378Z,13.37
2019-04-14T12:40:34.904Z,14.50
2019-04-14T12:43:05.329Z,14.67
2019-04-14T12:45:44.134Z,13.63
2019-04-14T12:48:14.269Z,14.70
2019-04-14T12:50:47.435Z,13.80
2019-04-14T12:53:15.899Z,14.80
2019-04-14T12:55:44.386Z,14.37
2019-04-14T12:58:15.512Z,14.73
2019-04-14T13:00:51.343Z,15.00
2019-04-14T13:03:20.280Z,16.70
2019-04-14T13:05:48.794Z,16.07
2019-04-14T13:08:17.254Z,15.63
2019-04-14T13:10:45.727Z,16.30
2019-04-14T13:13:14.202Z,15.00
2019-04-14T13:15:42.704Z,12.30
2019-04-14T13:18:11.184Z,15.50
2019-04-14T13:20:39.643Z,17.20
2019-04-14T13:23:08.146Z,15.37
2019-04-14T13:25:36.648Z,15.93
2019-04-14T13:28:05.177Z,16.37
2019-04-14T13:30:38.338Z,14.80
2019-04-14T13:33:06.861Z,14.53
2019-04-14T13:35:35.329Z,14.10
2019-04-14T13:38:04.098Z,16.53
2019-04-14T13:40:32.585Z,14.53
2019-04-14T13:43:01.034Z,13.23
2019-04-14T13:45:29.641Z,14.50
2019-04-14T13:47:58.079Z,14.73
2019-04-14T13:50:26.534Z,14.20
2019-04-14T13:52:54.991Z,14.53
2019-04-14T13:55:23.446Z,13.83
2019-04-14T13:57:51.898Z,14.33
2019-04-14T14:00:21.235Z,15.60
2019-04-14T14:02:49.692Z,13.93
2019-04-14T14:05:18.146Z,15.50
2019-04-14T14:07:46.592Z,13.93
2019-04-14T14:10:15.493Z,14.33
2019-04-14T14:13:02.080Z,15.27
2019-04-14T14:15:37.879Z,13.90
2019-04-14T14:18:07.988Z,15.00
2019-04-14T14:20:47.073Z,14.03
2019-04-14T14:23:17.252Z,14.77
2019-04-14T14:25:53.500Z,14.60
2019-04-14T14:28:21.941Z,14.13
2019-04-14T14:30:50.422Z,15.60
2019-04-14T14:33:19.019Z,14.07
2019-04-14T14:35:47.508Z,15.00
2019-04-14T14:38:15.947Z,14.63
2019-04-14T14:40:44.390Z,12.17
2019-04-14T14:43:12.947Z,11.90
2019-04-14T14:45:49.015Z,14.37
2019-04-14T14:48:21.826Z,14.43
2019-04-14T14:50:51.950Z,13.40
2019-04-14T14:53:22.252Z,15.07
2019-04-14T14:55:50.572Z,15.23
2019-04-14T14:58:19.086Z,15.10
2019-04-14T15:00:47.601Z,14.33
2019-04-14T15:03:16.135Z,14.00
2019-04-14T15:05:44.646Z,14.77
2019-04-14T15:08:13.591Z,14.00
2019-04-14T15:10:42.108Z,14.67
2019-04-14T15:13:10.597Z,14.30
2019-04-14T15:15:39.050Z,12.90
2019-04-14T15:18:07.518Z,15.43
2019-04-14T15:20:35.974Z,14.20
2019-04-14T15:23:04.623Z,15.17
2019-04-14T15:25:33.087Z,15.77
2019-04-14T15:28:01.546Z,15.30
2019-04-14T15:30:30.012Z,13.33
2019-04-14T15:32:58.513Z,14.80
2019-04-14T15:35:26.955Z,14.77
2019-04-14T15:37:55.433Z,13.07
2019-04-14T15:40:23.991Z,14.40
2019-04-14T15:42:52.519Z,13.60
2019-04-14T15:45:21.218Z,13.37
2019-04-14T15:47:49.675Z,13.30
2019-04-14T15:50:18.183Z,12.60
2019-04-14T15:52:46.676Z,12.40
2019-04-14T15:55:16.872Z,12.07
2019-04-14T15:58:01.839Z,11.30
2019-04-14T16:00:47.919Z,11.10
2019-04-14T16:03:18.066Z,10.83
2019-04-14T16:05:57.170Z,11.33
2019-04-14T16:08:27.330Z,12.03
2019-04-14T16:10:57.431Z,10.47
2019-04-14T16:13:30.506Z,9.57
2019-04-14T16:16:00.678Z,9.87
2019-04-14T16:18:48.655Z,9.60
2019-04-14T16:21:17.123Z,9.07
2019-04-14T16:23:50.728Z,10.63
2019-04-14T16:26:29.114Z,9.30
2019-04-14T16:29:02.728Z,8.80
2019-04-14T16:31:44.773Z,9.20
2019-04-14T16:34:26.579Z,8.43
2019-04-14T16:36:55.770Z,8.67
2019-04-14T16:39:24.243Z,8.47
2019-04-14T16:41:52.753Z,7.97
2019-04-14T16:44:21.305Z,7.50
2019-04-14T16:46:50.105Z,9.00
2019-04-14T16:49:18.731Z,7.13
2019-04-14T16:51:51.849Z,7.20
2019-04-14T16:54:24.890Z,8.17
2019-04-14T16:57:11.302Z,8.07
2019-04-14T16:59:39.807Z,7.30
2019-04-14T17:02:11.024Z,6.77
2019-04-14T17:04:38.514Z,7.97
2019-04-14T17:07:07.004Z,7.60
2019-04-14T17:09:35.446Z,7.57
2019-04-14T17:12:04.003Z,7.67
2019-04-14T17:14:36.183Z,6.10
2019-04-14T17:17:11.972Z,8.47
2019-04-14T17:19:57.357Z,6.97
2019-04-14T17:22:39.313Z,7.47
2019-04-14T17:25:15.274Z,7.60
2019-04-14T17:27:51.230Z,7.70
2019-04-14T17:30:21.310Z,5.97
2019-04-14T17:33:03.467Z,6.50
2019-04-14T17:35:36.395Z,6.20
2019-04-14T17:38:06.489Z,5.87
2019-04-14T17:40:54.714Z,6.17
2019-04-14T17:43:24.826Z,5.10
2019-04-14T17:45:57.845Z,5.60
2019-04-14T17:48:45.876Z,5.10
2019-04-14T17:51:18.843Z,5.93
2019-04-14T17:53:51.692Z,5.93
2019-04-14T17:56:24.553Z,7.10
2019-04-14T17:59:11.078Z,7.23
2019-04-14T18:01:41.237Z,6.50
2019-04-14T18:04:14.059Z,7.30
2019-04-14T18:06:46.908Z,6.50
2019-04-14T18:09:17.067Z,5.53
2019-04-14T18:11:49.874Z,5.93
2019-04-14T18:14:22.706Z,6.97
2019-04-14T18:16:52.791Z,6.57
2019-04-14T18:19:22.882Z,6.57
2019-04-14T18:21:52.323Z,6.83
2019-04-14T18:24:20.777Z,7.57
2019-04-14T18:26:49.339Z,7.90
2019-04-14T18:29:31.152Z,8.17
2019-04-14T18:32:01.235Z,7.50
2019-04-14T18:34:47.500Z,7.80
2019-04-14T18:37:23.660Z,7.30
2019-04-14T18:40:09.767Z,7.87
2019-04-14T18:42:48.570Z,7.97
2019-04-14T18:45:30.395Z,8.80
2019-04-14T18:48:03.545Z,8.43
2019-04-14T18:50:33.798Z,8.30
2019-04-14T18:53:09.610Z,8.73
2019-04-14T18:55:51.518Z,9.53
2019-04-14T18:58:30.257Z,8.90
2019-04-14T19:01:09.141Z,9.00
2019-04-14T19:03:39.506Z,9.57
2019-04-14T19:06:07.959Z,8.93
2019-04-14T19:08:36.570Z,9.20
2019-04-14T19:11:12.631Z,9.80
2019-04-14T19:13:42.999Z,9.57
2019-04-14T19:16:18.790Z,9.03
2019-04-14T19:18:51.583Z,8.70
2019-04-14T19:21:21.721Z,10.00
2019-04-14T19:23:50.238Z,9.70
2019-04-14T19:26:18.690Z,8.63
2019-04-14T19:28:47.172Z,8.27
2019-04-14T19:31:15.642Z,11.67
2019-04-14T19:33:44.104Z,8.13
2019-04-14T19:36:12.731Z,8.23
2019-04-14T19:38:41.277Z,8.80
2019-04-14T19:41:09.881Z,9.10
2019-04-14T19:43:38.323Z,7.80
2019-04-14T19:46:06.840Z,8.80
2019-04-14T19:48:35.297Z,9.10
2019-04-14T19:51:03.935Z,9.47
2019-04-14T19:53:32.440Z,9.07
2019-04-14T19:56:00.980Z,9.40
2019-04-14T19:58:29.466Z,9.20
2019-04-14T20:00:57.922Z,8.10
2019-04-14T20:03:26.370Z,9.53
2019-04-14T20:05:54.852Z,8.13
2019-04-14T20:08:23.517Z,8.97
2019-04-14T20:10:51.975Z,9.33
2019-04-14T20:13:20.454Z,8.80
2019-04-14T20:16:02.564Z,9.90
2019-04-14T20:18:49.003Z,8.00
2019-04-14T20:21:19.193Z,9.07
2019-04-14T20:23:51.839Z,9.90
2019-04-14T20:26:21.166Z,9.83
2019-04-14T20:28:59.974Z,9.27
2019-04-14T20:31:35.839Z,10.60
2019-04-14T20:34:04.524Z,9.90
2019-04-14T20:36:32.980Z,11.93
2019-04-14T20:39:01.435Z,10.60
2019-04-14T20:41:29.871Z,13.47
2019-04-14T20:43:58.338Z,10.90
2019-04-14T20:46:26.826Z,11.17
2019-04-14T20:48:55.286Z,11.20
2019-04-14T20:51:23.794Z,12.00
2019-04-14T20:53:52.293Z,12.20
2019-04-14T20:56:20.869Z,12.10
2019-04-14T20:58:49.322Z,12.00
2019-04-14T21:01:20.359Z,11.90
2019-04-14T21:04:06.770Z,11.67
2019-04-14T21:06:39.528Z,11.80
2019-04-14T21:09:27.684Z,13.07
2019-04-14T21:11:57.846Z,14.03
2019-04-14T21:14:28.026Z,14.00
2019-04-14T21:17:01.007Z,12.00
2019-04-14T21:19:33.735Z,14.20
2019-04-14T21:22:03.834Z,15.57
2019-04-14T21:24:33.971Z,15.30
2019-04-14T21:27:07.174Z,15.17
2019-04-14T21:29:46.058Z,15.20
2019-04-14T21:32:22.236Z,14.67
2019-04-14T21:34:52.329Z,15.37
2019-04-14T21:37:38.227Z,14.93
2019-04-14T21:40:15.026Z,16.63
2019-04-14T21:42:44.509Z,15.60
2019-04-14T21:45:13.114Z,14.53
2019-04-14T21:47:41.651Z,15.17
2019-04-14T21:50:10.359Z,16.17
2019-04-14T21:52:42.974Z,15.40
2019-04-14T21:55:11.694Z,14.97
2019-04-14T21:57:44.836Z,16.17
2019-04-14T22:00:32.643Z,16.67
2019-04-14T22:03:19.177Z,16.30
2019-04-14T22:05:52.075Z,17.87
2019-04-14T22:08:31.094Z,16.20
2019-04-14T22:11:10.098Z,18.70
2019-04-14T22:13:38.579Z,16.33
2019-04-14T22:16:07.054Z,15.53
2019-04-14T22:18:35.582Z,16.17
2019-04-14T22:21:04.138Z,15.97
2019-04-14T22:23:32.783Z,16.60
2019-04-14T22:26:01.294Z,14.90
2019-04-14T22:28:29.839Z,16.10
2019-04-14T22:30:58.367Z,14.40
2019-04-14T22:33:26.806Z,16.30
2019-04-14T22:35:55.308Z,16.70
2019-04-14T22:38:23.781Z,16.80
2019-04-14T22:40:52.341Z,18.10
2019-04-14T22:43:20.860Z,17.37
2019-04-14T22:45:49.315Z,16.90
2019-04-14T22:48:17.778Z,16.03
2019-04-14T22:50:46.298Z,17.43
2019-04-14T22:53:14.772Z,18.97
2019-04-14T22:55:43.273Z,16.53
2019-04-14T22:58:11.800Z,18.33
2019-04-14T23:00:53.671Z,18.60
2019-04-14T23:03:32.574Z,17.33
2019-04-14T23:06:11.718Z,24.00
2019-04-14T23:08:41.950Z,17.07
2019-04-14T23:11:23.947Z,17.20
2019-04-14T23:13:54.119Z,16.13
2019-04-14T23:16:40.548Z,16.90
2019-04-14T23:19:10.698Z,18.90
2019-04-14T23:21:57.360Z,17.57
2019-04-14T23:24:27.455Z,20.27
2019-04-14T23:26:55.894Z,18.57
2019-04-14T23:29:24.433Z,21.33
2019-04-14T23:31:52.894Z,18.60
2019-04-14T23:34:21.338Z,20.13
2019-04-14T23:36:49.784Z,19.53
2019-04-14T23:39:18.256Z,18.77
2019-04-14T23:41:46.722Z,21.20
2019-04-14T23:44:15.218Z,21.30
2019-04-14T23:46:43.698Z,21.87
2019-04-14T23:49:12.171Z,21.63
2019-04-14T23:51:40.612Z,24.03
2019-04-14T23:54:09.063Z,22.27
2019-04-14T23:56:37.506Z,22.43
2019-04-14T23:59:06.042Z,21.80
